Latest Weather Observations for Lismore Airport

IDN60801

Issued at 6:05 am EDT Monday 2 March 2015 (issued every 30 minutes, with the page automatically refreshed every 10 minutes)

About weather observations | Map of weather stations | Latest weather observations for NSW | Other Formats
Station Details ID: 058214 Name: LISMORE AIRPORT AWS Lat: -28.83 Lon: 153.26 Height: 9.21 m
Data from the previous 72 hours. | See also: Recent months for locations in New South Wales
Date/Time
EDT
Temp
°C
App
Temp
°C
Dew
Point
Rel
Hum
%
Delta-T
°C
Wind Press
QNH
hPa
Press
MSL
hPa
Rain
since 9 am
mm
Dir
 
Spd
km/h
Gust
km/h
Spd
kts
Gust
kts
02/06:00am 22.5 23.8 22.3 99 0.1 SW 19 26 10 14 1011.9 1011.9 1.2
02/05:30am 22.4 24.8 22.2 99 0.1 SW 13 17 7 9 1011.6 1011.6 0.6
02/05:00am 22.3 24.6 22.1 99 0.1 SW 13 19 7 10 1011.0 1011.0 0.6
02/04:30am 22.1 23.9 21.9 99 0.1 SW 15 19 8 10 1010.9 1010.9 0.6
02/04:00am 21.8 25.0 21.6 99 0.1 WSW 7 11 4 6 1010.9 1010.9 0.6
02/03:34am 21.4 25.7 21.2 99 0.1 CALM 0 0 0 0 1010.5 1010.5 0.6
02/03:30am 21.5 25.9 21.3 99 0.1 CALM 0 6 0 3 1010.4 1010.4 0.6
02/03:00am 21.6 24.7 21.4 99 0.1 N 7 9 4 5 1010.2 1010.2 0.6
02/02:30am 21.8 23.8 21.6 99 0.1 N 13 17 7 9 1010.3 1010.3 0.6
02/02:22am 21.9 24.8 21.7 99 0.1 N 9 15 5 8 1010.5 1010.5 0.6
02/02:00am 21.7 24.5 21.5 99 0.1 SW 9 11 5 6 1011.0 1011.0 0.6
02/01:31am 21.5 25.9 21.3 99 0.1 CALM 0 0 0 0 1010.7 1010.7 0.6
02/01:30am 21.5 25.9 21.3 99 0.1 CALM 0 0 0 0 1010.6 1010.6 0.6
02/01:00am 21.4 24.4 21.2 99 0.1 SW 7 9 4 5 1010.7 1010.7 0.6
02/12:30am 21.8 24.6 21.6 99 0.1 N 9 13 5 7 1010.5 1010.5 0.6
02/12:00am 22.0 26.5 21.5 97 0.3 CALM 0 0 0 0 1010.8 1010.8 0.6
 
Date/Time
EDT
Temp
°C
App
Temp
°C
Dew
Point
Rel
Hum
%
Delta-T
°C
Wind Press
QNH
hPa
Press
MSL
hPa
Rain
since 9 am
mm
Dir
 
Spd
km/h
Gust
km/h
Spd
kts
Gust
kts
01/11:30pm 22.3 26.8 21.6 96 0.5 CALM 0 0 0 0 1010.5 1010.5 0.6
01/11:06pm 22.5 26.5 22.0 97 0.3 SW 4 9 2 5 1010.4 1010.4 0.6
01/11:00pm 22.6 26.1 22.1 97 0.3 W 7 11 4 6 1010.4 1010.4 0.6
01/10:30pm 23.1 26.9 22.8 98 0.2 WSW 7 13 4 7 1010.4 1010.4 0.6
01/10:19pm 23.0 28.1 22.7 98 0.2 CALM 0 0 0 0 1010.3 1010.3 0.6
01/10:18pm 23.0 28.1 22.7 98 0.2 CALM 0 0 0 0 1010.3 1010.3 0.6
01/10:00pm 23.2 28.4 22.9 98 0.2 CALM 0 0 0 0 1009.9 1009.9 0.6
01/09:50pm 23.2 28.4 22.9 98 0.2 CALM 0 0 0 0 1009.9 1009.9 0.6
01/09:30pm 23.3 26.6 22.6 96 0.5 N 9 15 5 8 1009.2 1009.2 0.6
01/09:00pm 23.4 26.4 22.7 96 0.5 NNE 11 15 6 8 1008.3 1008.3 0.6
01/08:30pm 23.7 28.5 22.9 95 0.5 ESE 2 7 1 4 1008.6 1008.6 0.6
01/08:00pm 24.1 26.4 22.7 92 0.9 N 15 19 8 10 1008.4 1008.4 0.2
01/07:30pm 25.2 26.6 21.9 82 2.2 ENE 17 28 9 15 1008.0 1008.0 0.0
01/07:00pm 25.9 26.1 21.3 76 3.1 ENE 22 32 12 17 1007.3 1007.3 0.0
01/06:30pm 26.4 26.6 21.4 74 3.3 ENE 22 32 12 17 1007.2 1007.2 0.0
01/06:00pm 27.0 26.9 21.5 72 3.7 ENE 24 35 13 19 1006.9 1006.9 0.0
01/05:30pm 27.8 28.1 21.6 69 4.1 NE 22 32 12 17 1006.6 1006.6 0.0
01/05:00pm 29.4 30.5 22.4 66 4.8 ENE 20 30 11 16 1006.4 1006.4 0.0
01/04:30pm 29.8 30.9 22.3 64 5.1 ENE 20 30 11 16 1006.5 1006.5 0.0
01/04:00pm 30.1 31.3 22.5 63 5.2 ENE 20 30 11 16 1006.6 1006.6 0.0
01/03:30pm 31.3 33.2 22.0 57 6.3 NE 15 24 8 13 1007.1 1007.1 0.0
01/03:00pm 30.9 32.7 21.1 56 6.6 NNE 13 19 7 10 1007.4 1007.4 0.0
01/02:30pm 31.7 33.2 19.0 47 8.3 NW 9 13 5 7 1007.9 1007.9 0.0
01/02:00pm 31.1 34.5 20.1 52 7.3 NE 2 11 1 6 1008.5 1008.5 0.0
01/01:30pm 30.3 32.8 21.1 58 6.1 NNW 9 15 5 8 1008.8 1008.8 0.0
01/01:00pm 30.3 32.8 21.7 60 5.8 NW 11 28 6 15 1009.2 1009.2 0.0
01/12:30pm 29.7 31.9 21.1 60 5.7 NNW 11 17 6 9 1009.7 1009.7 0.0
01/12:00pm 28.9 31.2 20.6 61 5.5 N 9 20 5 11 1010.2 1010.2 0.0
01/11:30am 28.6 30.7 20.1 60 5.6 NNE 9 13 5 7 1010.6 1010.6 0.0
01/11:00am 27.8 30.4 20.1 63 5.0 NNW 6 13 3 7 1010.9 1010.9 0.0
01/10:30am 27.2 29.7 20.3 66 4.5 NNW 7 15 4 8 1011.0 1011.0 0.0
01/10:00am 26.0 28.4 19.6 68 4.1 N 6 11 3 6 1011.2 1011.2 0.0
01/09:30am 25.6 29.7 22.3 82 2.2 NNE 4 43 2 23 1011.1 1011.1 0.0
01/09:00am 22.8 25.5 21.3 91 1.0 N 9 11 5 6 1011.0 1011.0 0.0
01/08:30am 21.6 24.3 21.4 99 0.1 NNW 9 13 5 7 1011.0 1011.0 0.0
01/08:00am 20.7 23.0 20.7 100 0.0 N 9 13 5 7 1010.8 1010.8 0.0
01/07:30am 19.9 21.9 19.9 100 0.0 N 9 11 5 6 1010.7 1010.7 0.0
01/07:00am 19.2 20.8 19.2 100 0.0 N 9 11 5 6 1010.5 1010.5 0.0
01/06:30am 19.4 20.7 19.2 99 0.1 N 11 13 6 7 1010.2 1010.2 0.0
01/06:00am 19.3 21.3 19.1 99 0.1 NNW 7 11 4 6 1010.0 1010.0 0.0
01/05:30am 19.1 20.6 18.9 99 0.1 N 9 11 5 6 1009.9 1009.9 0.0
01/05:00am 18.8 21.5 18.6 99 0.1 N 2 13 1 7 1009.6 1009.6 0.0
01/04:30am 19.4 22.7 19.2 99 0.1 CALM 0 0 0 0 1009.7 1009.7 0.0
01/04:00am 19.4 22.7 19.2 99 0.1 CALM 0 0 0 0 1009.8 1009.8 0.0
01/03:30am 19.2 22.4 18.9 98 0.2 CALM 0 0 0 0 1009.9 1009.9 0.0
01/03:00am 20.0 23.6 19.7 98 0.2 CALM 0 0 0 0 1010.0 1010.0 0.0
01/02:30am 20.0 22.1 19.3 96 0.4 NW 7 9 4 5 1010.1 1010.1 0.0
01/02:00am 20.5 22.8 19.8 96 0.4 NNW 7 9 4 5 1010.4 1010.4 0.0
01/01:30am 21.0 23.5 20.2 95 0.5 NNW 7 9 4 5 1010.7 1010.7 0.0
01/01:00am 21.3 23.5 20.5 95 0.5 N 9 11 5 6 1010.9 1010.9 0.0
01/12:30am 21.6 24.2 20.4 93 0.8 N 7 9 4 5 1011.2 1011.2 0.0
01/12:00am 21.6 23.1 20.6 94 0.6 NNW 13 15 7 8 1011.1 1011.1 0.0
 
Date/Time
EDT
Temp
°C
App
Temp
°C
Dew
Point
Rel
Hum
%
Delta-T
°C
Wind Press
QNH
hPa
Press
MSL
hPa
Rain
since 9 am
mm
Dir
 
Spd
km/h
Gust
km/h
Spd
kts
Gust
kts
28/11:30pm 22.0 24.2 20.5 91 1.0 N 9 11 5 6 1011.2 1011.2 0.0
28/11:00pm 22.1 23.5 20.4 90 1.1 N 13 17 7 9 1011.1 1011.1 0.0
28/10:30pm 22.1 23.5 20.4 90 1.1 N 13 17 7 9 1011.3 1011.3 0.0
28/10:00pm 23.1 24.4 20.1 83 1.9 NNE 13 19 7 10 1011.3 1011.3 0.0
28/09:30pm 23.3 24.2 20.1 82 2.1 NNE 15 22 8 12 1010.9 1010.9 0.0
28/09:00pm 23.5 24.0 20.0 81 2.3 NE 17 24 9 13 1010.5 1010.5 0.0
28/08:30pm 23.9 23.7 19.8 78 2.6 NE 20 30 11 16 1010.2 1010.2 0.0
28/08:00pm 24.2 24.6 19.9 77 2.8 NE 17 26 9 14 1010.0 1010.0 0.0
28/07:30pm 24.5 24.2 19.6 74 3.2 NE 20 30 11 16 1009.5 1009.5 0.0
28/07:00pm 24.8 25.2 19.8 74 3.2 NE 17 28 9 15 1009.3 1009.3 0.0
28/06:30pm 25.7 25.4 20.3 72 3.5 NE 22 33 12 18 1008.8 1008.8 0.0
28/06:00pm 26.4 25.8 20.5 70 3.9 NE 24 37 13 20 1008.8 1008.8 0.0
28/05:30pm 26.9 26.3 20.5 68 4.2 NE 24 33 13 18 1008.6 1008.6 0.0
28/05:00pm 27.4 26.8 20.5 66 4.5 NE 24 33 13 18 1008.4 1008.4 0.0
28/04:30pm 28.0 27.9 20.8 65 4.8 ENE 22 32 12 17 1008.4 1008.4 0.0
28/04:00pm 28.2 29.3 21.2 65 4.7 ENE 17 24 9 13 1008.6 1008.6 0.0
28/03:30pm 28.4 29.2 21.4 66 4.7 E 19 28 10 15 1008.7 1008.7 0.0
28/03:00pm 27.6 27.9 20.4 65 4.7 ENE 19 30 10 16 1009.1 1009.1 0.0
28/02:30pm 28.9 30.7 21.9 66 4.7 ENE 15 22 8 12 1009.4 1009.4 0.0
28/02:00pm 27.8 28.7 20.9 66 4.6 ESE 17 24 9 13 1009.7 1009.7 0.0
28/01:30pm 28.6 30.1 20.6 62 5.3 SE 13 19 7 10 1009.9 1009.9 0.0
28/01:00pm 29.4 32.0 20.0 57 6.2 E 6 15 3 8 1010.2 1010.2 0.0
28/12:30pm 29.0 30.9 19.0 54 6.5 SW 7 13 4 7 1010.5 1010.5 0.0
28/12:00pm 28.7 31.6 21.0 63 5.1 WSW 7 13 4 7 1010.9 1010.9 0.0
28/11:30am 27.9 30.6 21.4 67 4.3 SSW 9 15 5 8 1011.2 1011.2 0.0
28/11:00am 27.7 31.1 21.0 67 4.4 E 4 7 2 4 1011.5 1011.5 0.0
28/10:30am 26.8 30.4 21.3 72 3.7 SE 4 7 2 4 1011.5 1011.5 0.0
28/10:15am 25.4 29.2 21.7 80 2.5 SSW 4 9 2 5 1011.6 1011.6 0.0
28/10:00am 25.2 28.2 21.9 82 2.2 WSW 9 13 5 7 1011.7 1011.7 0.0
28/09:54am 25.5 29.2 22.2 82 2.2 SSW 6 11 3 6 1011.7 1011.7 0.0
28/09:38am 25.0 28.6 22.1 84 1.9 SSW 6 13 3 7 1011.7 1011.7 0.0
28/09:30am 24.7 27.7 22.0 85 1.8 SW 9 13 5 7 1011.6 1011.6 0.0
28/09:00am 23.2 27.8 21.8 92 0.9 CALM 0 0 0 0 1011.4 1011.4 0.0
28/08:30am 22.2 26.9 21.9 98 0.2 CALM 0 0 0 0 1011.3 1011.3 0.0
28/08:18am 22.3 27.1 22.1 99 0.1 CALM 0 0 0 0 1011.2 1011.2 0.0
28/08:00am 21.8 26.4 21.8 100 0.0 CALM 0 0 0 0 1011.1 1011.1 0.0
28/07:30am 21.3 25.7 21.3 100 0.0 CALM 0 0 0 0 1010.8 1010.8 0.0
28/07:00am 19.9 23.6 19.9 100 0.0 CALM 0 0 0 0 1010.3 1010.3 0.0
28/06:30am 19.9 23.6 19.9 100 0.0 CALM 0 0 0 0 1010.1 1010.1 0.0
28/06:00am 19.9 23.6 19.9 100 0.0 CALM 0 0 0 0 1009.8 1009.8 0.0
28/05:30am 20.6 24.6 20.6 100 0.0 CALM 0 0 0 0 1009.7 1009.7 0.0
28/05:00am 20.5 24.5 20.5 100 0.0 CALM 0 0 0 0 1009.6 1009.6 0.0
28/04:30am 20.4 22.5 20.2 99 0.1 NNW 9 11 5 6 1009.4 1009.4 0.0
28/04:00am 20.7 23.3 20.5 99 0.1 N 7 9 4 5 1009.3 1009.3 0.0
28/03:30am 21.0 23.8 20.8 99 0.1 NNE 7 9 4 5 1009.7 1009.7 0.0
28/03:00am 21.0 23.0 20.8 99 0.1 N 11 13 6 7 1009.9 1009.9 0.0
28/02:30am 20.8 23.1 20.6 99 0.1 NNW 9 13 5 7 1009.9 1009.9 0.0
28/02:00am 21.1 23.5 20.9 99 0.1 NW 9 13 5 7 1009.9 1009.9 0.0
28/01:30am 21.3 24.2 21.1 99 0.1 NNW 7 9 4 5 1010.2 1010.2 0.0
28/01:00am 21.5 24.1 21.2 98 0.2 NNW 9 9 5 5 1010.3 1010.3 0.0
28/12:30am 21.5 24.4 21.0 97 0.3 N 7 9 4 5 1010.2 1010.2 0.0
28/12:00am 21.8 26.0 21.0 95 0.5 CALM 0 0 0 0 1010.4 1010.4 0.0
 
Date/Time
EDT
Temp
°C
App
Temp
°C
Dew
Point
Rel
Hum
%
Delta-T
°C
Wind Press
QNH
hPa
Press
MSL
hPa
Rain
since 9 am
mm
Dir
 
Spd
km/h
Gust
km/h
Spd
kts
Gust
kts
27/11:30pm 21.6 24.0 20.8 95 0.5 NNW 9 11 5 6 1010.4 1010.4 0.0
27/11:00pm 22.1 24.2 20.9 93 0.8 NNW 11 13 6 7 1010.1 1010.1 0.0
27/10:30pm 22.6 25.0 20.9 90 1.1 NNE 9 13 5 7 1009.8 1009.8 0.0
27/10:00pm 23.3 24.8 20.6 85 1.8 NE 13 20 7 11 1009.8 1009.8 0.0
27/09:30pm 23.5 24.7 20.6 84 1.9 NE 15 20 8 11 1009.8 1009.8 0.0
27/09:00pm 23.6 24.4 20.7 84 1.9 NE 17 24 9 13 1009.2 1009.2 0.0
27/08:30pm 23.8 24.4 21.1 85 1.8 NE 19 26 10 14 1008.8 1008.8 0.0
27/08:00pm 24.5 24.9 21.0 81 2.3 NE 20 28 11 15 1008.5 1008.5 0.0
27/07:30pm 24.9 26.0 21.2 80 2.4 ENE 17 24 9 13 1008.4 1008.4 0.0
27/07:00pm 25.3 25.9 21.4 79 2.6 ENE 20 26 11 14 1007.9 1007.9 0.0
27/06:30pm 25.7 25.8 21.1 76 3.0 ENE 22 30 12 16 1007.4 1007.4 0.0
27/06:00pm 26.2 27.0 21.4 75 3.2 ENE 19 24 10 13 1007.1 1007.1 0.0
27/05:30pm 26.6 27.1 20.9 71 3.8 ENE 19 26 10 14 1006.8 1006.8 0.0
27/05:00pm 27.1 29.1 20.7 68 4.2 ENE 11 20 6 11 1006.6 1006.6 0.0
27/04:30pm 28.6 30.0 18.7 55 6.4 ESE 9 11 5 6 1006.5 1006.5 0.0
27/04:00pm 29.7 32.5 18.8 52 7.1 SSE 2 9 1 5 1006.4 1006.4 0.0
27/03:30pm 29.7 30.0 17.8 48 7.6 SW 13 17 7 9 1006.9 1006.9 0.0
27/03:00pm 28.9 29.2 18.7 54 6.6 SW 15 19 8 10 1007.0 1007.0 0.0
27/02:30pm 28.7 30.9 19.6 58 5.9 WNW 7 13 4 7 1007.1 1007.1 0.0
27/02:00pm 28.9 31.1 19.5 57 6.1 WNW 7 17 4 9 1007.4 1007.4 0.0
27/01:30pm 28.3 29.9 20.8 63 5.0 WNW 13 20 7 11 1007.9 1007.9 0.0
27/01:00pm 28.7 30.8 19.3 56 6.1 NNW 7 15 4 8 1008.2 1008.2 0.0
27/12:30pm 28.4 30.2 18.8 56 6.2 N 7 13 4 7 1008.6 1008.6 0.0
27/12:00pm 27.6 29.9 19.9 63 5.0 NE 7 13 4 7 1008.6 1008.6 0.0
27/11:30am 27.3 31.2 21.1 69 4.1 N 2 9 1 5 1009.1 1009.1 0.0
27/11:00am 26.3 28.4 18.9 63 4.7 W 6 13 3 7 1009.5 1009.5 0.0
27/10:30am 25.0 27.6 20.5 76 2.9 W 7 13 4 7 1009.6 1009.6 0.0
27/10:00am 24.6 26.2 19.9 75 3.0 WSW 11 17 6 9 1009.7 1009.7 0.0
27/09:30am 23.8 26.5 20.7 83 2.0 W 7 13 4 7 1009.4 1009.4 0.0
27/09:00am 22.1 24.1 21.6 97 0.3 WSW 13 17 7 9 1009.1 1009.1 1.0
27/08:30am 22.0 24.4 21.5 97 0.3 WSW 11 15 6 8 1008.4 1008.4 1.0
27/08:00am 21.6 26.0 21.4 99 0.1 CALM 0 0 0 0 1007.9 1007.9 1.0
27/07:30am 21.0 21.5 20.8 99 0.1 ENE 19 24 10 13 1006.8 1006.8 1.0
27/07:00am 20.8 22.0 20.6 99 0.1 NNE 15 20 8 11 1007.1 1007.1 1.0
27/06:30am 20.7 21.8 20.5 99 0.1 N 15 20 8 11 1007.9 1007.9 0.8

Other Formats:

Comma delimited format used in spreadsheet applications
http://www.bom.gov.au/fwo/IDN60801/IDN60801.94572.axf

JavaScript Object Notation format (JSON) in row-major order
http://www.bom.gov.au/fwo/IDN60801/IDN60801.94572.json